createdAt,value
2023-05-11T04:22:12.522Z,9.9
2023-05-11T05:01:08.568Z,10.2
2023-05-11T07:48:35.156Z,12.6
2023-05-11T09:29:14.123Z,14.1
2023-05-11T10:02:30.617Z,14
2023-05-11T10:13:54.087Z,16
2023-05-11T10:19:20.616Z,15.6
2023-05-11T10:25:17.188Z,14.6
2023-05-11T10:47:29.230Z,14.8
2023-05-11T10:53:13.936Z,14.8
2023-05-11T11:37:54.009Z,16.2
2023-05-11T14:48:37.725Z,11.8
2023-05-11T15:16:32.443Z,11
2023-05-11T15:22:13.904Z,10.8
2023-05-11T15:33:11.960Z,11.4
2023-05-11T15:38:47.935Z,11.4
2023-05-11T15:55:33.564Z,11.8
2023-05-11T16:01:27.146Z,12
2023-05-11T16:12:23.657Z,12.2
2023-05-11T20:45:50.199Z,10.2
2023-05-11T20:51:18.393Z,10.1
2023-05-11T20:56:56.000Z,10.1
2023-05-11T21:02:07.043Z,10.1
2023-05-11T21:07:53.120Z,10.2
2023-05-11T21:13:26.310Z,10.1
2023-05-11T21:19:01.951Z,10.2
2023-05-11T21:24:31.046Z,10.3
2023-05-11T21:30:02.761Z,10.2
2023-05-11T21:35:32.779Z,10.2
2023-05-11T21:41:04.682Z,10.3
2023-05-11T21:46:36.016Z,10.3
2023-05-11T21:52:22.802Z,10.4
2023-05-11T22:03:13.176Z,9.9
2023-05-11T22:08:50.039Z,9.8
2023-05-11T22:14:41.203Z,9.9
2023-05-11T22:20:03.332Z,10
2023-05-11T22:25:22.566Z,10
2023-05-11T22:31:23.756Z,10.1
2023-05-11T22:36:48.796Z,10
2023-05-11T22:42:20.407Z,10
2023-05-11T22:53:24.861Z,10.1
2023-05-11T22:59:07.420Z,10
2023-05-11T23:04:14.440Z,9.9
2023-05-11T23:09:53.935Z,10
2023-05-11T23:15:46.001Z,10.1
2023-05-11T23:21:16.720Z,10
2023-05-11T23:26:34.585Z,10
2023-05-11T23:32:12.657Z,10.1
2023-05-11T23:37:38.332Z,10.2
2023-05-11T23:43:30.708Z,10.1
2023-05-11T23:48:42.885Z,10
2023-05-11T23:54:27.014Z,10
